createdAt,value
2022-10-18T00:00:59.072Z,5.60
2022-10-18T00:03:29.024Z,5.35
2022-10-18T00:05:59.686Z,5.88
2022-10-18T00:08:27.546Z,6.07
2022-10-18T00:10:57.700Z,5.80
2022-10-18T00:13:26.980Z,5.65
2022-10-18T00:16:00.459Z,6.40
2022-10-18T00:18:28.481Z,6.25
2022-10-18T00:21:08.981Z,6.00
2022-10-18T00:23:36.845Z,6.25
2022-10-18T00:26:08.271Z,6.95
2022-10-18T00:28:36.365Z,7.07
2022-10-18T00:31:38.574Z,6.45
2022-10-18T00:34:09.681Z,6.50
2022-10-18T00:36:36.992Z,6.75
2022-10-18T00:39:06.171Z,6.60
2022-10-18T00:41:36.927Z,6.22
2022-10-18T00:44:11.266Z,7.10
2022-10-18T00:46:44.824Z,6.40
2022-10-18T00:49:22.573Z,6.85
2022-10-18T00:52:00.306Z,6.85
2022-10-18T00:54:32.029Z,6.40
2022-10-18T00:57:00.446Z,7.55
2022-10-18T00:59:28.025Z,7.35
2022-10-18T01:01:55.190Z,7.32
2022-10-18T01:04:22.999Z,8.07
2022-10-18T01:07:01.567Z,7.57
2022-10-18T01:09:41.640Z,7.47
2022-10-18T01:12:30.521Z,8.13
2022-10-18T01:15:11.796Z,6.65
2022-10-18T01:17:49.194Z,7.70
2022-10-18T01:20:49.716Z,7.80
2022-10-18T01:23:26.429Z,8.45
2022-10-18T01:26:11.075Z,7.32
2022-10-18T01:28:59.183Z,8.00
2022-10-18T01:31:45.448Z,8.30
2022-10-18T01:34:17.205Z,7.68
2022-10-18T01:36:56.635Z,7.35
2022-10-18T01:39:33.890Z,6.78
2022-10-18T01:42:05.976Z,8.38
2022-10-18T01:44:37.916Z,7.88
2022-10-18T01:47:12.416Z,8.13
2022-10-18T01:49:39.318Z,8.00
2022-10-18T01:52:21.576Z,7.47
2022-10-18T01:54:49.446Z,7.25
2022-10-18T01:57:37.448Z,8.32
2022-10-18T02:00:45.141Z,7.65
2022-10-18T02:03:22.533Z,7.30
2022-10-18T02:06:00.375Z,8.32
2022-10-18T02:08:35.616Z,7.72
2022-10-18T02:11:12.443Z,7.30
2022-10-18T02:14:02.687Z,7.20
2022-10-18T02:16:37.825Z,8.25
2022-10-18T02:19:16.442Z,7.82
2022-10-18T02:21:45.637Z,9.05
2022-10-18T02:24:15.306Z,8.60
2022-10-18T02:26:42.646Z,8.25
2022-10-18T02:29:10.111Z,7.97
2022-10-18T02:31:44.049Z,8.18
2022-10-18T02:34:31.958Z,8.13
2022-10-18T02:37:01.440Z,8.27
2022-10-18T02:39:48.609Z,8.07
2022-10-18T02:42:18.042Z,8.52
2022-10-18T02:44:48.019Z,8.93
2022-10-18T02:47:21.244Z,7.65
2022-10-18T02:49:48.621Z,8.70
2022-10-18T02:52:15.641Z,8.10
2022-10-18T02:54:42.470Z,8.98
2022-10-18T02:57:09.676Z,7.88
2022-10-18T02:59:36.834Z,9.02
2022-10-18T03:02:04.119Z,8.68
2022-10-18T03:04:31.502Z,8.90
2022-10-18T03:06:58.530Z,8.18
2022-10-18T03:09:25.706Z,8.00
2022-10-18T03:11:54.904Z,9.35
2022-10-18T03:14:22.206Z,8.50
2022-10-18T03:16:52.143Z,8.65
2022-10-18T03:19:19.201Z,8.32
2022-10-18T03:21:46.553Z,8.70
2022-10-18T03:24:13.874Z,8.57
2022-10-18T03:26:41.293Z,9.07
2022-10-18T03:29:10.321Z,8.70
2022-10-18T03:31:37.716Z,8.68
2022-10-18T03:34:07.495Z,8.32
2022-10-18T03:36:34.649Z,8.75
2022-10-18T03:39:01.745Z,8.30
2022-10-18T03:41:29.171Z,8.45
2022-10-18T03:43:58.553Z,8.15
2022-10-18T03:46:28.611Z,8.80
2022-10-18T03:48:55.547Z,8.57
2022-10-18T03:51:28.569Z,8.73
2022-10-18T03:53:55.560Z,9.10
2022-10-18T03:56:22.545Z,8.05
2022-10-18T03:58:49.599Z,8.38
2022-10-18T04:01:19.621Z,8.32
2022-10-18T04:03:46.632Z,7.78
2022-10-18T04:06:14.722Z,9.02
2022-10-18T04:08:44.708Z,8.27
2022-10-18T04:11:14.727Z,8.50
2022-10-18T04:13:41.747Z,8.88
2022-10-18T04:16:08.750Z,9.23
2022-10-18T04:18:35.717Z,10.10
2022-10-18T04:21:02.894Z,9.52
2022-10-18T04:23:31.811Z,9.52
2022-10-18T04:26:04.782Z,9.93
2022-10-18T04:28:31.864Z,10.43
2022-10-18T04:31:01.951Z,9.05
2022-10-18T04:33:28.945Z,8.82
2022-10-18T04:35:55.883Z,8.63
2022-10-18T04:38:26.648Z,9.00
2022-10-18T04:40:53.744Z,9.07
2022-10-18T04:43:24.459Z,9.15
2022-10-18T04:45:51.491Z,9.27
2022-10-18T04:48:19.006Z,10.27
2022-10-18T04:50:49.974Z,8.40
2022-10-18T04:53:21.102Z,9.27
2022-10-18T04:55:49.494Z,10.23
2022-10-18T04:58:18.171Z,9.02
2022-10-18T05:00:47.943Z,10.00
2022-10-18T05:03:18.176Z,10.13
2022-10-18T05:06:03.952Z,10.20
2022-10-18T05:08:33.209Z,10.27
2022-10-18T05:11:00.713Z,10.63
2022-10-18T05:13:31.041Z,10.75
2022-10-18T05:16:00.184Z,10.77
2022-10-18T05:18:27.564Z,10.85
2022-10-18T05:20:54.660Z,10.98
2022-10-18T05:23:21.879Z,10.13
2022-10-18T05:25:49.176Z,10.75
2022-10-18T05:28:41.093Z,10.38
2022-10-18T05:31:12.281Z,10.95
2022-10-18T05:33:39.537Z,10.07
2022-10-18T05:36:10.299Z,11.07
2022-10-18T05:38:45.559Z,10.68
2022-10-18T05:41:13.146Z,11.10
2022-10-18T05:43:41.177Z,11.95
2022-10-18T05:46:13.467Z,12.10
2022-10-18T05:48:45.029Z,11.18
2022-10-18T05:51:14.605Z,11.35
2022-10-18T05:53:44.154Z,12.20
2022-10-18T05:56:14.521Z,11.82
2022-10-18T05:58:42.871Z,11.82
2022-10-18T06:01:10.922Z,11.57
2022-10-18T06:03:38.102Z,11.82
2022-10-18T06:06:08.189Z,11.55
2022-10-18T06:08:39.361Z,11.48
2022-10-18T06:11:11.524Z,11.40
2022-10-18T06:16:19.979Z,13.07
2022-10-18T06:19:00.786Z,13.00
2022-10-18T06:21:29.481Z,12.23
2022-10-18T06:24:00.912Z,12.73
2022-10-18T06:26:28.741Z,12.60
2022-10-18T06:29:01.425Z,12.95
2022-10-18T06:31:28.582Z,12.75
2022-10-18T06:33:58.299Z,12.05
2022-10-18T06:36:25.308Z,12.45
2022-10-18T06:38:52.807Z,12.98
2022-10-18T06:41:20.606Z,12.02
2022-10-18T06:43:51.750Z,12.32
2022-10-18T06:46:19.942Z,12.25
2022-10-18T06:48:47.377Z,13.57
2022-10-18T06:51:15.422Z,13.10
2022-10-18T06:53:53.460Z,12.23
2022-10-18T06:56:30.774Z,13.30
2022-10-18T06:59:00.055Z,13.02
2022-10-18T07:01:28.633Z,13.38
2022-10-18T07:03:58.908Z,12.02
2022-10-18T07:06:26.261Z,11.70
2022-10-18T07:08:54.290Z,11.82
2022-10-18T07:11:25.186Z,12.57
2022-10-18T07:13:55.672Z,13.32
2022-10-18T07:16:25.886Z,12.60
2022-10-18T07:18:52.871Z,12.82
2022-10-18T07:21:24.569Z,13.13
2022-10-18T07:23:52.728Z,12.65
2022-10-18T07:26:22.664Z,12.50
2022-10-18T07:28:54.785Z,13.45
2022-10-18T07:31:24.241Z,12.43
2022-10-18T07:33:52.479Z,13.52
2022-10-18T07:36:21.415Z,12.60
2022-10-18T07:38:49.264Z,14.13
2022-10-18T07:41:16.290Z,13.25
2022-10-18T07:43:49.979Z,14.18
2022-10-18T07:46:18.662Z,13.70
2022-10-18T07:48:45.961Z,14.38
2022-10-18T07:51:16.056Z,15.18
2022-10-18T07:53:43.043Z,14.50
2022-10-18T07:56:21.041Z,15.27
2022-10-18T07:58:53.866Z,14.82
2022-10-18T08:01:22.798Z,16.17
2022-10-18T08:03:54.024Z,16.02
2022-10-18T08:06:22.896Z,20.55
2022-10-18T08:08:50.023Z,18.35
2022-10-18T08:11:20.707Z,22.42
2022-10-18T08:13:51.227Z,24.48
2022-10-18T08:16:21.525Z,21.52
2022-10-18T08:18:49.303Z,23.33
2022-10-18T08:21:18.605Z,18.52
2022-10-18T08:23:46.369Z,26.42
2022-10-18T08:26:16.163Z,25.58
2022-10-18T08:28:49.265Z,27.08
2022-10-18T08:31:25.905Z,25.50
2022-10-18T08:33:56.990Z,28.98
2022-10-18T08:36:24.719Z,26.00
2022-10-18T08:38:51.844Z,30.23
2022-10-18T08:41:43.949Z,32.85
2022-10-18T08:44:28.542Z,31.13
2022-10-18T08:47:10.713Z,31.15
2022-10-18T08:49:47.288Z,32.10
2022-10-18T08:52:24.895Z,31.48
2022-10-18T08:55:18.928Z,34.78
2022-10-18T08:57:47.859Z,30.75
2022-10-18T09:00:19.782Z,32.78
2022-10-18T09:02:49.515Z,33.15
2022-10-18T09:05:16.630Z,35.35
2022-10-18T09:08:09.825Z,31.73
2022-10-18T09:11:02.106Z,31.67
2022-10-18T09:14:03.583Z,30.80
2022-10-18T09:16:54.977Z,28.95
2022-10-18T09:19:38.720Z,25.70
2022-10-18T09:22:18.470Z,32.13
2022-10-18T09:25:19.564Z,33.22
2022-10-18T09:27:53.941Z,33.70
2022-10-18T09:30:41.487Z,31.60
2022-10-18T09:33:18.916Z,29.35
2022-10-18T09:36:02.478Z,28.60
2022-10-18T09:38:35.543Z,32.80
2022-10-18T09:41:10.749Z,31.48
2022-10-18T09:43:59.656Z,29.63
2022-10-18T09:46:32.260Z,34.35
2022-10-18T09:49:05.875Z,32.25
2022-10-18T09:51:39.079Z,36.33
2022-10-18T09:54:23.999Z,30.92
2022-10-18T09:59:37.127Z,33.42
2022-10-18T10:02:05.603Z,31.00
2022-10-18T10:04:36.685Z,28.92
2022-10-18T10:07:08.859Z,31.42
2022-10-18T10:12:38.894Z,28.08
2022-10-18T10:15:23.846Z,29.17
2022-10-18T10:17:59.611Z,31.70
2022-10-18T10:20:47.312Z,34.83
2022-10-18T10:23:21.187Z,32.95
2022-10-18T10:26:08.320Z,30.55
2022-10-18T10:28:37.787Z,31.27
2022-10-18T10:31:23.624Z,30.52
2022-10-18T10:34:06.782Z,32.10
2022-10-18T10:36:35.766Z,30.83
2022-10-18T10:39:10.812Z,29.80
2022-10-18T10:41:40.934Z,30.27
2022-10-18T10:44:24.375Z,30.77
2022-10-18T10:46:55.528Z,27.00
2022-10-18T10:49:42.281Z,30.23
2022-10-18T10:52:28.406Z,30.95
2022-10-18T10:55:11.078Z,29.80
2022-10-18T10:57:47.594Z,32.53
2022-10-18T11:00:44.105Z,32.38
2022-10-18T11:03:27.797Z,30.25
2022-10-18T11:06:01.193Z,28.90
2022-10-18T11:08:38.234Z,26.73
2022-10-18T11:11:43.573Z,31.67
2022-10-18T11:14:36.529Z,27.55
2022-10-18T11:17:17.427Z,28.23
2022-10-18T11:20:01.876Z,23.20
2022-10-18T11:22:35.360Z,25.38
2022-10-18T11:25:07.439Z,24.23
2022-10-18T11:27:54.130Z,24.83
2022-10-18T11:30:53.447Z,23.13
2022-10-18T11:33:50.060Z,23.23
2022-10-18T11:36:31.215Z,22.40
2022-10-18T11:39:07.371Z,20.88
2022-10-18T11:41:55.478Z,22.75
2022-10-18T11:44:45.147Z,21.77
2022-10-18T11:47:40.836Z,19.90
2022-10-18T11:50:13.418Z,21.17
2022-10-18T11:52:48.946Z,20.38
2022-10-18T11:55:36.971Z,18.33
2022-10-18T11:58:23.295Z,15.95
2022-10-18T12:00:56.174Z,12.57
2022-10-18T12:03:44.714Z,15.95
2022-10-18T12:06:21.035Z,18.80
2022-10-18T12:08:54.267Z,15.32
2022-10-18T12:11:29.827Z,16.88
2022-10-18T12:14:01.748Z,16.92
2022-10-18T12:16:50.458Z,16.33
2022-10-18T12:19:26.217Z,13.52
2022-10-18T12:22:10.560Z,13.38
2022-10-18T12:24:37.876Z,11.60
2022-10-18T12:27:05.111Z,14.52
2022-10-18T12:29:45.399Z,13.43
2022-10-18T12:33:02.067Z,11.35
2022-10-18T12:35:45.566Z,13.40
2022-10-18T12:38:25.597Z,11.88
2022-10-18T12:40:54.977Z,14.07
2022-10-18T12:43:37.937Z,15.20
2022-10-18T12:46:13.081Z,13.50
2022-10-18T12:48:46.365Z,12.65
2022-10-18T12:51:15.376Z,10.07
2022-10-18T12:53:46.023Z,11.40
2022-10-18T12:56:42.307Z,10.70
2022-10-18T12:59:15.495Z,10.27
2022-10-18T13:01:51.372Z,10.05
2022-10-18T13:04:32.630Z,11.00
2022-10-18T13:07:05.544Z,11.38
2022-10-18T13:09:37.853Z,10.93
2022-10-18T13:12:10.661Z,10.02
2022-10-18T13:15:05.956Z,10.40
2022-10-18T13:17:55.052Z,10.52
2022-10-18T13:20:37.794Z,9.73
2022-10-18T13:23:38.069Z,9.05
2022-10-18T13:27:05.118Z,6.53
2022-10-18T13:30:14.758Z,5.47
2022-10-18T13:32:50.664Z,7.70
2022-10-18T13:35:45.120Z,7.00
2022-10-18T13:38:47.298Z,7.15
2022-10-18T13:41:18.967Z,6.53
2022-10-18T13:44:00.348Z,6.85
2022-10-18T13:46:33.111Z,6.93
2022-10-18T13:49:25.077Z,6.03
2022-10-18T13:52:48.379Z,5.35
2022-10-18T13:55:33.835Z,6.10
2022-10-18T13:58:19.673Z,7.03
2022-10-18T14:00:49.110Z,5.68
2022-10-18T14:03:56.242Z,6.30
2022-10-18T14:06:25.361Z,5.70
2022-10-18T14:09:14.182Z,4.90
2022-10-18T14:12:25.054Z,5.88
2022-10-18T14:15:05.335Z,6.13
2022-10-18T14:17:43.012Z,5.70
2022-10-18T14:20:49.023Z,3.88
2022-10-18T14:23:27.743Z,3.92
2022-10-18T14:26:09.245Z,3.95
2022-10-18T14:28:58.616Z,3.78
2022-10-18T14:31:24.946Z,3.22
2022-10-18T14:33:59.216Z,3.17
2022-10-18T14:36:29.945Z,3.63
2022-10-18T14:39:03.154Z,2.67
2022-10-18T14:41:33.011Z,3.25
2022-10-18T14:44:12.107Z,3.55
2022-10-18T14:47:04.254Z,3.95
2022-10-18T14:49:31.281Z,3.08
2022-10-18T14:52:00.316Z,3.13
2022-10-18T14:54:37.208Z,2.42
2022-10-18T14:57:07.885Z,3.00
2022-10-18T14:59:54.042Z,3.10
2022-10-18T15:02:26.776Z,3.38
2022-10-18T15:05:08.523Z,3.92
2022-10-18T15:07:36.533Z,3.72
2022-10-18T15:10:05.516Z,3.00
2022-10-18T15:12:40.992Z,2.03
2022-10-18T15:15:27.613Z,2.28
2022-10-18T15:18:05.263Z,2.40
2022-10-18T15:20:42.655Z,1.75
2022-10-18T15:23:25.588Z,2.05
2022-10-18T15:26:03.164Z,2.22
2022-10-18T15:28:33.448Z,1.48
2022-10-18T15:31:02.184Z,1.98
2022-10-18T15:33:34.914Z,1.80
2022-10-18T15:36:10.794Z,1.90
2022-10-18T15:38:38.906Z,1.80
2022-10-18T15:41:38.477Z,1.65
2022-10-18T15:44:36.764Z,1.30
2022-10-18T15:47:13.190Z,1.85
2022-10-18T15:49:46.214Z,1.67
2022-10-18T15:52:22.012Z,2.20
2022-10-18T15:54:51.567Z,2.20
2022-10-18T15:57:18.775Z,1.83
2022-10-18T15:59:54.369Z,1.27
2022-10-18T16:02:24.510Z,1.55
2022-10-18T16:04:54.572Z,1.40
2022-10-18T16:07:21.793Z,1.30
2022-10-18T16:09:49.006Z,1.30
2022-10-18T16:12:27.798Z,1.67
2022-10-18T16:14:56.951Z,1.50
2022-10-18T16:17:28.184Z,2.05
2022-10-18T16:19:59.803Z,2.00
2022-10-18T16:22:27.181Z,2.28
2022-10-18T16:24:54.937Z,2.47
2022-10-18T16:27:28.260Z,2.83
2022-10-18T16:30:00.195Z,2.35
2022-10-18T16:32:27.289Z,2.70
2022-10-18T16:34:54.927Z,2.92
2022-10-18T16:37:22.110Z,3.15
2022-10-18T16:39:49.028Z,2.40
2022-10-18T16:42:16.005Z,2.97
2022-10-18T16:44:42.890Z,2.72
2022-10-18T16:47:12.320Z,2.55
2022-10-18T16:49:45.470Z,3.28
2022-10-18T16:52:12.734Z,3.03
2022-10-18T16:54:39.912Z,2.53
2022-10-18T16:57:07.420Z,2.92
2022-10-18T16:59:37.396Z,3.08
2022-10-18T17:02:11.605Z,3.15
2022-10-18T17:04:38.775Z,2.67
2022-10-18T17:07:08.969Z,2.55
2022-10-18T17:09:37.080Z,3.22
2022-10-18T17:12:06.389Z,2.63
2022-10-18T17:14:39.809Z,3.40
2022-10-18T17:17:12.847Z,3.10
2022-10-18T17:19:40.172Z,3.20
2022-10-18T17:22:10.022Z,3.20
2022-10-18T17:24:42.421Z,3.40
2022-10-18T17:27:11.332Z,3.15
2022-10-18T17:29:40.933Z,2.92
2022-10-18T17:32:08.642Z,3.22
2022-10-18T17:34:38.013Z,2.75
2022-10-18T17:37:06.156Z,3.08
2022-10-18T17:39:36.688Z,3.95
2022-10-18T17:42:06.307Z,3.53
2022-10-18T17:44:33.882Z,3.70
2022-10-18T17:47:01.012Z,3.72
2022-10-18T17:49:28.361Z,3.70
2022-10-18T17:51:55.807Z,2.90
2022-10-18T17:54:22.867Z,3.58
2022-10-18T17:56:52.341Z,3.22
2022-10-18T17:59:22.497Z,3.55
2022-10-18T18:01:49.681Z,3.40
2022-10-18T18:04:25.822Z,3.15
2022-10-18T18:06:57.422Z,2.63
2022-10-18T18:09:25.061Z,3.08
2022-10-18T18:11:52.292Z,3.45
2022-10-18T18:14:19.759Z,3.85
2022-10-18T18:16:47.498Z,3.97
2022-10-18T18:19:15.651Z,3.05
2022-10-18T18:21:43.487Z,3.08
2022-10-18T18:24:10.889Z,3.95
2022-10-18T18:26:41.487Z,3.72
2022-10-18T18:29:08.656Z,2.95
2022-10-18T18:31:41.307Z,3.50
2022-10-18T18:34:11.297Z,4.18
2022-10-18T18:36:40.565Z,4.10
2022-10-18T18:39:09.098Z,3.67
2022-10-18T18:41:37.911Z,3.33
2022-10-18T18:44:06.315Z,3.47
2022-10-18T18:46:38.394Z,3.58
2022-10-18T18:49:08.062Z,3.90
2022-10-18T18:51:38.139Z,4.07
2022-10-18T18:54:05.671Z,3.58
2022-10-18T18:56:33.428Z,3.72
2022-10-18T18:59:00.967Z,4.30
2022-10-18T19:01:30.917Z,4.22
2022-10-18T19:03:58.985Z,3.65
2022-10-18T19:06:29.299Z,4.18
2022-10-18T19:09:01.540Z,4.18
2022-10-18T19:11:35.213Z,3.95
2022-10-18T19:14:03.802Z,4.05
2022-10-18T19:16:35.884Z,4.47
2022-10-18T19:19:06.187Z,4.55
2022-10-18T19:21:37.299Z,5.30
2022-10-18T19:24:46.198Z,5.00
2022-10-18T19:27:15.359Z,5.63
2022-10-18T19:29:43.144Z,5.13
2022-10-18T19:32:12.588Z,5.38
2022-10-18T19:34:46.123Z,5.72
2022-10-18T19:37:15.244Z,5.55
2022-10-18T19:39:42.578Z,5.78
2022-10-18T19:42:18.620Z,6.30
2022-10-18T19:44:49.702Z,7.18
2022-10-18T19:47:16.838Z,5.97
2022-10-18T19:49:44.215Z,6.85
2022-10-18T19:52:12.512Z,6.63
2022-10-18T19:54:40.059Z,6.68
2022-10-18T19:57:07.319Z,6.90
2022-10-18T19:59:36.209Z,5.90
2022-10-18T20:02:06.709Z,7.38
2022-10-18T20:04:35.164Z,6.40
2022-10-18T20:07:02.849Z,6.55
2022-10-18T20:09:30.097Z,6.40
2022-10-18T20:11:57.357Z,7.20
2022-10-18T20:14:24.490Z,7.80
2022-10-18T20:16:51.762Z,6.88
2022-10-18T20:19:18.889Z,6.80
2022-10-18T20:21:46.104Z,6.55
2022-10-18T20:24:13.189Z,7.30
2022-10-18T20:26:40.318Z,6.50
2022-10-18T20:29:10.725Z,7.10
2022-10-18T20:31:39.152Z,7.28
2022-10-18T20:34:12.061Z,6.50
2022-10-18T20:36:43.330Z,7.38
2022-10-18T20:39:13.365Z,7.25
2022-10-18T20:41:41.379Z,6.57
2022-10-18T20:44:13.727Z,6.93
2022-10-18T20:49:10.467Z,7.93
2022-10-18T20:51:37.427Z,7.35
2022-10-18T20:54:06.857Z,7.40
2022-10-18T20:56:36.949Z,7.28
2022-10-18T20:59:11.717Z,8.63
2022-10-18T21:01:40.427Z,9.77
2022-10-18T21:04:09.552Z,7.53
2022-10-18T21:06:42.217Z,7.47
2022-10-18T21:09:15.647Z,7.68
2022-10-18T21:11:44.993Z,7.45
2022-10-18T21:14:14.902Z,7.57
2022-10-18T21:16:43.322Z,7.50
2022-10-18T21:19:17.684Z,7.03
2022-10-18T21:21:47.186Z,7.90
2022-10-18T21:24:18.107Z,8.05
2022-10-18T21:26:45.875Z,8.23
2022-10-18T21:29:21.867Z,8.23
2022-10-18T21:31:49.760Z,7.75
2022-10-18T21:34:17.764Z,8.00
2022-10-18T21:36:50.092Z,8.10
2022-10-18T21:39:20.445Z,7.25
2022-10-18T21:41:47.946Z,8.55
2022-10-18T21:44:15.663Z,7.95
2022-10-18T21:46:43.565Z,8.95
2022-10-18T21:49:11.433Z,8.55
2022-10-18T21:51:39.533Z,7.70
2022-10-18T21:54:10.481Z,8.70
2022-10-18T21:56:37.893Z,9.45
2022-10-18T21:59:05.513Z,9.30
2022-10-18T22:01:35.158Z,8.32
2022-10-18T22:04:05.703Z,8.25
2022-10-18T22:09:14.731Z,9.23
2022-10-18T22:11:47.427Z,8.70
2022-10-18T22:14:14.462Z,8.57
2022-10-18T22:16:41.483Z,8.93
2022-10-18T22:19:09.557Z,9.38
2022-10-18T22:21:36.498Z,9.75
2022-10-18T22:24:10.787Z,10.80
2022-10-18T22:26:40.700Z,10.02
2022-10-18T22:29:15.092Z,8.95
2022-10-18T22:31:45.114Z,8.85
2022-10-18T22:34:15.457Z,7.95
2022-10-18T22:36:45.919Z,8.48
2022-10-18T22:39:16.965Z,9.70
2022-10-18T22:41:44.379Z,10.65
2022-10-18T22:44:15.182Z,10.25
2022-10-18T22:46:43.042Z,9.57
2022-10-18T22:49:11.444Z,8.40
2022-10-18T22:51:38.696Z,8.93
2022-10-18T22:54:10.267Z,8.77
2022-10-18T22:56:41.458Z,8.70
2022-10-18T22:59:08.600Z,8.20
2022-10-18T23:01:39.003Z,7.72
2022-10-18T23:04:06.251Z,7.97
2022-10-18T23:06:36.045Z,8.45
2022-10-18T23:09:10.436Z,7.72
2022-10-18T23:11:37.664Z,8.48
2022-10-18T23:14:08.584Z,9.40
2022-10-18T23:16:35.922Z,8.50
2022-10-18T23:19:03.228Z,8.57
2022-10-18T23:21:30.692Z,9.45
2022-10-18T23:23:58.073Z,10.38
2022-10-18T23:26:27.504Z,10.57
2022-10-18T23:28:55.310Z,9.90
2022-10-18T23:31:31.316Z,10.02
2022-10-18T23:34:03.886Z,9.05
2022-10-18T23:36:32.626Z,8.77
2022-10-18T23:39:02.556Z,8.63
2022-10-18T23:41:29.656Z,8.88
2022-10-18T23:43:56.834Z,9.10
2022-10-18T23:46:24.679Z,8.73
2022-10-18T23:48:54.516Z,9.95
2022-10-18T23:51:21.552Z,9.52
2022-10-18T23:53:48.609Z,9.57
2022-10-18T23:56:16.668Z,8.98
2022-10-18T23:58:44.831Z,10.10
